Time;durP1;ratioP1;P1;durP2;ratioP2;P2;SDS_P1;SDS_P2;PMS_P1;PMS_P2;Temp;Humidity;BMP_temperature;BMP_pressure;BME280_temperature;BME280_humidity;BME280_pressure;Samples;Min_cycle;Max_cycle;Signal;HPM_P1;HPM_P2
2022/04/09 00:01:25;;;;;;;30.63;17.63;;;6.60;99.90;;;;;;5059294;28;20055;-51
2022/04/09 00:03:51;;;;;;;36.38;19.13;;;6.70;99.90;;;;;;5057509;28;20151;-52
2022/04/09 00:06:17;;;;;;;31.48;18.15;;;6.70;99.90;;;;;;5057749;28;20492;-53
2022/04/09 00:08:43;;;;;;;31.10;17.77;;;6.70;99.90;;;;;;5058894;28;20027;-50
2022/04/09 00:11:08;;;;;;;35.25;20.40;;;6.70;99.90;;;;;;5056726;28;20477;-52
2022/04/09 00:13:35;;;;;;;35.58;18.45;;;6.60;99.90;;;;;;5056634;28;20107;-52
2022/04/09 00:16:01;;;;;;;33.13;17.13;;;6.70;99.90;;;;;;5058413;28;20087;-52
2022/04/09 00:18:27;;;;;;;27.05;16.35;;;6.70;99.90;;;;;;5055309;28;20476;-52
2022/04/09 00:20:53;;;;;;;28.77;17.92;;;6.70;99.90;;;;;;5058327;28;20028;-52
2022/04/09 00:23:18;;;;;;;25.63;15.82;;;6.70;99.90;;;;;;5058005;28;20020;-52
2022/04/09 00:25:45;;;;;;;27.10;16.58;;;6.70;99.90;;;;;;5056740;28;20033;-52
2022/04/09 00:28:11;;;;;;;29.35;16.63;;;6.60;99.90;;;;;;5058622;28;20031;-52
2022/04/09 00:30:38;;;;;;;26.88;16.55;;;6.60;99.90;;;;;;5057578;28;20029;-51
2022/04/09 00:33:04;;;;;;;29.92;15.68;;;6.60;99.90;;;;;;5056797;28;20158;-51
2022/04/09 00:35:29;;;;;;;27.13;16.08;;;6.60;99.90;;;;;;5058701;28;20075;-52
2022/04/09 00:37:55;;;;;;;24.08;15.45;;;6.50;99.90;;;;;;5057297;28;20020;-52
2022/04/09 00:40:25;;;;;;;29.05;16.73;;;6.60;99.90;;;;;;5056958;28;20029;-52
2022/04/09 00:42:51;;;;;;;29.35;15.00;;;6.60;99.90;;;;;;5058409;28;20035;-52
2022/04/09 00:45:17;;;;;;;26.45;14.68;;;6.60;99.90;;;;;;5057478;28;20029;-51
2022/04/09 00:47:43;;;;;;;28.23;14.52;;;6.70;99.90;;;;;;5055274;28;20021;-52
2022/04/09 00:50:11;;;;;;;26.70;15.07;;;6.80;99.90;;;;;;5058627;28;20024;-52
2022/04/09 00:52:40;;;;;;;27.77;15.90;;;6.80;99.90;;;;;;5057275;28;20494;-51
2022/04/09 00:55:06;;;;;;;24.80;14.60;;;6.70;99.90;;;;;;5060291;28;20040;-53
2022/04/09 00:57:34;;;;;;;25.73;14.03;;;6.70;99.90;;;;;;5061600;28;20431;-51
2022/04/09 01:00:14;;;;;;;27.17;15.40;;;6.70;99.90;;;;;;5061713;28;20488;-51
2022/04/09 01:02:42;;;;;;;30.88;16.75;;;6.80;99.90;;;;;;5060778;28;20076;-52
2022/04/09 01:05:08;;;;;;;30.40;17.88;;;6.80;99.90;;;;;;5059770;28;20124;-52
2022/04/09 01:07:35;;;;;;;30.52;17.83;;;6.80;99.90;;;;;;5061667;28;20021;-52
2022/04/09 01:10:02;;;;;;;27.55;17.05;;;6.80;99.90;;;;;;5061685;28;20392;-52
2022/04/09 01:12:28;;;;;;;30.65;18.45;;;6.70;99.90;;;;;;5059778;28;20116;-53
2022/04/09 01:14:54;;;;;;;35.50;18.88;;;6.70;99.90;;;;;;5061398;28;20024;-52
2022/04/09 01:17:20;;;;;;;31.27;18.60;;;6.60;99.90;;;;;;5061241;28;20021;-52
2022/04/09 01:19:45;;;;;;;31.85;20.15;;;6.70;99.90;;;;;;5059847;28;20135;-51
2022/04/09 01:22:11;;;;;;;38.22;19.75;;;6.60;99.90;;;;;;5061647;28;20090;-50
2022/04/09 01:24:37;;;;;;;37.67;20.77;;;6.60;99.90;;;;;;5061264;28;20021;-51
2022/04/09 01:27:04;;;;;;;33.10;19.52;;;6.70;99.90;;;;;;5063229;28;20035;-51
2022/04/09 01:29:30;;;;;;;29.33;18.73;;;6.70;99.90;;;;;;5069978;28;20032;-52
2022/04/09 01:31:56;;;;;;;32.83;19.65;;;6.70;99.90;;;;;;5060630;28;20518;-50
2022/04/09 01:34:22;;;;;;;34.00;19.83;;;6.70;99.90;;;;;;5062347;28;20032;-51
2022/04/09 01:36:48;;;;;;;34.35;18.48;;;6.60;99.90;;;;;;5061920;28;20051;-49
2022/04/09 01:39:17;;;;;;;33.70;19.45;;;6.60;99.90;;;;;;5068652;28;20028;-51
2022/04/09 01:41:45;;;;;;;35.70;20.50;;;6.50;99.90;;;;;;5071238;28;20032;-51
2022/04/09 01:44:10;;;;;;;33.53;19.98;;;6.50;99.90;;;;;;5071050;28;20021;-50
2022/04/09 01:46:37;;;;;;;32.15;18.80;;;6.50;99.90;;;;;;5071320;28;20031;-51
2022/04/09 01:49:04;;;;;;;36.95;19.52;;;6.60;99.90;;;;;;5071082;28;20383;-52
2022/04/09 01:51:30;;;;;;;33.00;18.23;;;6.70;99.90;;;;;;5069807;28;20530;-52
2022/04/09 01:53:55;;;;;;;30.42;17.80;;;6.70;99.90;;;;;;5071122;28;20032;-50
2022/04/09 01:56:21;;;;;;;37.17;21.15;;;6.60;99.90;;;;;;5070850;28;20028;-52
2022/04/09 01:58:47;;;;;;;34.05;19.92;;;6.60;99.90;;;;;;5052756;28;20159;-51
2022/04/09 02:01:17;;;;;;;36.67;20.45;;;6.60;99.90;;;;;;5070601;28;20020;-51
2022/04/09 02:03:42;;;;;;;33.88;19.02;;;6.60;99.90;;;;;;5069181;28;20056;-52
2022/04/09 02:06:08;;;;;;;31.27;18.67;;;6.60;99.90;;;;;;5070149;28;20040;-52
2022/04/09 02:08:34;;;;;;;35.22;20.75;;;6.50;99.90;;;;;;5070663;28;20118;-51
2022/04/09 02:11:00;;;;;;;34.30;21.42;;;6.50;99.90;;;;;;5070862;28;20037;-51
2022/04/09 02:13:26;;;;;;;36.65;21.17;;;6.50;99.90;;;;;;5070833;28;20027;-52
2022/04/09 02:15:51;;;;;;;38.33;22.30;;;6.50;99.90;;;;;;5070626;28;20024;-51
2022/04/09 02:18:17;;;;;;;34.75;21.25;;;6.50;99.90;;;;;;5070505;28;20064;-51
2022/04/09 02:20:43;;;;;;;42.30;22.60;;;6.50;99.90;;;;;;5070584;28;20032;-51
2022/04/09 02:23:08;;;;;;;35.65;22.35;;;6.40;99.90;;;;;;5070304;28;20059;-52
2022/04/09 02:25:34;;;;;;;39.58;24.52;;;6.40;99.90;;;;;;5070181;28;20522;-52
2022/04/09 02:27:59;;;;;;;41.75;25.05;;;6.40;99.90;;;;;;5050449;28;20036;-53
2022/04/09 02:30:25;;;;;;;47.78;22.60;;;6.50;99.90;;;;;;5050359;28;20506;-53
2022/04/09 02:32:53;;;;;;;46.03;24.40;;;6.40;99.90;;;;;;5050663;28;20476;-53
2022/04/09 02:35:21;;;;;;;45.60;24.30;;;6.40;99.90;;;;;;5050295;28;20025;-52
2022/04/09 02:37:47;;;;;;;40.33;22.60;;;6.30;99.90;;;;;;5050028;28;20028;-50
2022/04/09 02:40:13;;;;;;;44.35;26.33;;;6.40;99.90;;;;;;5050477;28;20082;-52
2022/04/09 02:42:40;;;;;;;47.57;27.20;;;6.30;99.90;;;;;;5050108;28;20114;-52
2022/04/09 02:45:07;;;;;;;43.15;23.55;;;6.40;99.90;;;;;;5049882;28;20099;-52
2022/04/09 02:47:34;;;;;;;45.83;26.00;;;6.40;99.90;;;;;;5049929;28;20079;-52
2022/04/09 02:50:04;;;;;;;50.92;27.05;;;6.40;99.90;;;;;;5049909;28;20029;-51
2022/04/09 02:52:38;;;;;;;45.85;24.58;;;6.40;99.90;;;;;;5049695;28;20025;-52
2022/04/09 02:55:05;;;;;;;47.33;28.08;;;6.40;99.90;;;;;;5049837;28;20025;-51
2022/04/09 02:57:31;;;;;;;51.85;25.70;;;6.40;99.90;;;;;;5049386;28;20392;-51
2022/04/09 02:59:57;;;;;;;47.90;26.13;;;6.40;99.90;;;;;;5049761;28;20110;-50
2022/04/09 03:02:23;;;;;;;51.40;26.20;;;6.40;99.90;;;;;;5049533;28;20415;-51
2022/04/09 03:04:49;;;;;;;46.85;26.33;;;6.50;99.90;;;;;;5049563;28;20076;-52
2022/04/09 03:07:14;;;;;;;50.15;25.88;;;6.40;99.90;;;;;;5049706;28;20052;-51
2022/04/09 03:09:40;;;;;;;50.95;27.02;;;6.30;99.90;;;;;;5049622;28;20060;-51
2022/04/09 03:12:06;;;;;;;51.75;28.77;;;6.30;99.90;;;;;;5049434;28;20087;-51
2022/04/09 03:14:32;;;;;;;53.85;28.08;;;6.40;99.90;;;;;;5049434;28;20036;-52
2022/04/09 03:16:57;;;;;;;50.15;25.88;;;6.30;99.90;;;;;;5048590;28;20381;-51
2022/04/09 03:19:23;;;;;;;55.05;28.52;;;6.40;99.90;;;;;;5049549;28;20155;-52
2022/04/09 03:21:49;;;;;;;49.22;28.15;;;6.40;99.90;;;;;;5051056;28;20385;-51
2022/04/09 03:24:14;;;;;;;61.10;31.15;;;6.40;99.90;;;;;;5069127;28;20021;-51
2022/04/09 03:26:40;;;;;;;53.42;28.80;;;6.50;99.90;;;;;;5060145;28;20091;-52
2022/04/09 03:29:06;;;;;;;49.70;27.77;;;6.50;99.90;;;;;;5049003;28;20036;-52
2022/04/09 03:31:33;;;;;;;55.92;28.85;;;6.40;99.90;;;;;;5049124;28;20590;-51
2022/04/09 03:33:58;;;;;;;54.03;28.85;;;6.40;99.90;;;;;;5049254;28;20028;-53
2022/04/09 03:36:24;;;;;;;54.42;28.92;;;6.30;99.90;;;;;;5049204;28;20059;-52
2022/04/09 03:38:50;;;;;;;59.42;32.13;;;6.40;99.90;;;;;;5048864;28;20483;-52
2022/04/09 03:41:15;;;;;;;58.78;31.27;;;6.30;99.90;;;;;;5048957;28;20032;-51
2022/04/09 03:43:41;;;;;;;57.58;32.00;;;6.30;99.90;;;;;;5049160;28;20078;-54
2022/04/09 03:46:07;;;;;;;60.40;34.35;;;6.30;99.90;;;;;;5048605;28;20037;-52
2022/04/09 03:48:32;;;;;;;59.88;32.55;;;6.20;99.90;;;;;;5047513;28;20033;-51
2022/04/09 03:50:58;;;;;;;64.25;34.92;;;6.20;99.90;;;;;;5048858;28;20051;-50
2022/04/09 03:53:24;;;;;;;65.57;36.95;;;6.30;99.90;;;;;;5048795;28;20032;-52
2022/04/09 03:55:50;;;;;;;68.28;37.35;;;6.20;99.90;;;;;;5048722;28;20029;-52
2022/04/09 03:58:16;;;;;;;59.85;34.50;;;6.20;99.90;;;;;;5048590;28;20107;-51
2022/04/09 04:00:42;;;;;;;69.93;38.22;;;6.20;99.90;;;;;;5048670;28;20391;-51
2022/04/09 04:03:10;;;;;;;57.20;33.22;;;6.20;99.90;;;;;;5048752;28;20023;-50
2022/04/09 04:05:39;;;;;;;49.33;27.67;;;6.10;99.90;;;;;;5048777;28;20052;-52
2022/04/09 04:08:08;;;;;;;35.63;21.10;;;6.10;99.90;;;;;;5048648;28;20143;-49
2022/04/09 04:10:36;;;;;;;32.35;18.20;;;6.00;99.90;;;;;;5048911;28;20066;-51
2022/04/09 04:13:02;;;;;;;26.30;17.10;;;5.90;99.90;;;;;;5048475;28;20168;-52
2022/04/09 04:15:28;;;;;;;23.73;15.23;;;5.80;99.90;;;;;;5048480;28;20029;-51
2022/04/09 04:17:55;;;;;;;22.63;13.27;;;5.80;99.90;;;;;;5048661;28;20099;-52
2022/04/09 04:20:21;;;;;;;19.67;11.60;;;5.70;99.90;;;;;;5048663;28;20040;-49
2022/04/09 04:22:47;;;;;;;16.42;10.02;;;5.70;99.90;;;;;;5058341;28;20172;-50
2022/04/09 04:25:13;;;;;;;12.37;7.43;;;5.80;99.90;;;;;;5068583;28;20128;-50
2022/04/09 04:27:43;;;;;;;13.95;8.65;;;5.80;99.90;;;;;;5052970;28;20863;-50
2022/04/09 04:30:09;;;;;;;12.30;7.40;;;5.80;99.90;;;;;;5052193;28;20059;-51
2022/04/09 04:32:35;;;;;;;15.32;7.35;;;5.80;99.90;;;;;;5052509;28;20088;-50
2022/04/09 04:35:00;;;;;;;9.43;5.70;;;5.80;99.90;;;;;;5052366;28;20060;-52
2022/04/09 04:37:39;;;;;;;9.82;6.30;;;5.80;99.90;;;;;;5052319;28;20471;-52
2022/04/09 04:40:06;;;;;;;12.50;5.50;;;5.90;99.90;;;;;;5052541;28;20033;-51
2022/04/09 04:42:32;;;;;;;8.05;5.25;;;5.80;99.90;;;;;;5052247;28;20500;-50
2022/04/09 04:44:57;;;;;;;10.02;5.10;;;5.80;99.90;;;;;;5052085;28;20092;-52
2022/04/09 04:47:23;;;;;;;9.15;5.90;;;5.80;99.90;;;;;;5052151;28;20040;-52
2022/04/09 04:49:49;;;;;;;15.07;6.60;;;5.80;99.90;;;;;;5051951;28;20032;-53
2022/04/09 04:52:14;;;;;;;11.70;6.25;;;5.70;99.90;;;;;;5052106;28;20060;-52
2022/04/09 04:54:40;;;;;;;8.45;5.53;;;5.60;99.90;;;;;;5052197;28;20021;-51
2022/04/09 04:57:06;;;;;;;9.57;5.90;;;5.60;99.90;;;;;;5051898;28;20047;-51
2022/04/09 04:59:32;;;;;;;8.60;5.55;;;5.50;99.90;;;;;;5052196;28;20049;-51
2022/04/09 05:01:57;;;;;;;7.65;4.80;;;5.50;99.90;;;;;;5052097;28;20079;-51
2022/04/09 05:04:25;;;;;;;9.93;4.82;;;5.40;99.90;;;;;;5051768;28;20036;-54
2022/04/09 05:06:51;;;;;;;;;;;5.30;99.90;;;;;;5052521;28;20056;-51
2022/04/09 05:09:17;;;;;;;11.95;5.40;;;5.20;99.90;;;;;;5051900;28;19908;-50
2022/04/09 05:11:43;;;;;;;7.47;4.50;;;5.30;99.90;;;;;;5051877;28;20100;-51
2022/04/09 05:14:09;;;;;;;10.35;4.60;;;5.10;99.90;;;;;;5051669;28;20104;-52
2022/04/09 05:16:34;;;;;;;7.00;4.10;;;5.00;99.90;;;;;;5051711;28;20737;-53
2022/04/09 05:19:00;;;;;;;6.35;3.70;;;4.90;99.90;;;;;;5051707;28;20496;-52
2022/04/09 05:21:26;;;;;;;7.75;4.45;;;4.80;99.90;;;;;;5051541;28;20471;-50
2022/04/09 05:23:52;;;;;;;7.68;4.57;;;4.80;99.90;;;;;;5070117;28;20024;-51
2022/04/09 05:26:17;;;;;;;7.57;4.45;;;4.80;99.90;;;;;;5065589;28;20052;-52
2022/04/09 05:28:43;;;;;;;8.05;4.80;;;4.70;99.90;;;;;;5051415;28;20606;-50
2022/04/09 05:31:12;;;;;;;11.77;5.70;;;4.70;99.90;;;;;;5051315;28;20057;-51
2022/04/09 05:33:38;;;;;;;13.90;6.85;;;4.70;99.90;;;;;;5051433;28;20021;-51
2022/04/09 05:36:05;;;;;;;12.77;6.60;;;4.50;99.90;;;;;;5051409;28;20431;-51
2022/04/09 05:38:31;;;;;;;;;;;4.60;99.90;;;;;;5050956;28;20036;-52
2022/04/09 05:40:57;;;;;;;13.38;7.57;;;4.60;99.90;;;;;;5051096;28;19908;-52
2022/04/09 05:43:23;;;;;;;10.57;6.40;;;4.60;99.90;;;;;;5051581;28;20033;-53
2022/04/09 05:45:50;;;;;;;8.65;5.13;;;4.50;99.90;;;;;;5050956;28;20041;-53
2022/04/09 05:48:15;;;;;;;9.70;4.93;;;4.50;99.90;;;;;;5051159;28;20048;-53
2022/04/09 05:50:41;;;;;;;15.38;6.78;;;4.40;99.90;;;;;;5050918;28;20388;-51
2022/04/09 05:53:07;;;;;;;20.20;8.20;;;4.40;99.90;;;;;;5050838;28;20031;-51
2022/04/09 05:55:32;;;;;;;13.52;5.63;;;4.30;99.90;;;;;;5051280;28;20112;-51
2022/04/09 05:57:59;;;;;;;7.40;3.80;;;4.20;99.90;;;;;;5050512;28;20120;-51
2022/04/09 06:00:25;;;;;;;7.82;4.10;;;4.20;99.90;;;;;;5050794;28;20037;-51
2022/04/09 06:02:51;;;;;;;6.28;3.30;;;4.10;99.90;;;;;;5050930;28;20033;-52
2022/04/09 06:05:17;;;;;;;7.00;3.45;;;4.10;99.90;;;;;;5050830;28;20132;-51
2022/04/09 06:07:42;;;;;;;9.02;3.97;;;4.10;99.90;;;;;;5050748;28;20021;-51
2022/04/09 06:10:10;;;;;;;7.00;3.63;;;4.10;99.90;;;;;;5050970;28;20033;-51
2022/04/09 06:12:36;;;;;;;6.72;3.72;;;4.10;99.90;;;;;;5050735;28;20480;-50
2022/04/09 06:15:03;;;;;;;7.33;4.20;;;4.20;99.90;;;;;;5050582;28;20033;-52
2022/04/09 06:17:29;;;;;;;13.07;4.60;;;4.20;99.90;;;;;;5050589;28;20233;-52
2022/04/09 06:19:55;;;;;;;6.60;4.18;;;4.30;99.90;;;;;;5050790;28;20506;-52
2022/04/09 06:22:21;;;;;;;7.30;4.05;;;4.20;99.90;;;;;;5056975;28;20052;-52
2022/04/09 06:24:46;;;;;;;8.65;4.93;;;4.20;99.90;;;;;;5070307;28;20105;-52
2022/04/09 06:27:12;;;;;;;7.38;4.53;;;4.20;99.90;;;;;;5056774;28;20236;-52
2022/04/09 06:29:38;;;;;;;6.53;4.03;;;4.20;99.90;;;;;;5050606;28;20448;-52
2022/04/09 06:32:04;;;;;;;5.20;3.78;;;4.20;99.90;;;;;;5048754;28;20243;-51
2022/04/09 06:34:30;;;;;;;9.10;4.90;;;4.20;99.90;;;;;;5050274;28;20029;-51
2022/04/09 06:36:56;;;;;;;8.35;4.82;;;4.20;99.90;;;;;;5050067;28;20037;-51
2022/04/09 06:39:23;;;;;;;8.13;4.30;;;4.20;99.90;;;;;;5050346;28;20020;-52
2022/04/09 06:41:49;;;;;;;9.18;4.40;;;4.20;99.90;;;;;;5050120;28;20354;-52
2022/04/09 06:44:16;;;;;;;7.80;4.50;;;4.20;99.90;;;;;;5050114;28;20079;-52
2022/04/09 06:46:43;;;;;;;8.83;5.30;;;4.10;99.90;;;;;;5049969;28;20036;-52
2022/04/09 06:49:12;;;;;;;;;;;4.10;99.90;;;;;;5050250;28;20021;-51
2022/04/09 06:51:42;;;;;;;8.40;5.00;;;4.10;99.90;;;;;;5048907;28;19908;-52
2022/04/09 06:54:09;;;;;;;8.27;4.72;;;4.00;99.90;;;;;;5049645;28;20021;-53
2022/04/09 06:56:36;;;;;;;9.27;5.50;;;4.00;99.90;;;;;;5049797;28;20052;-51
2022/04/09 06:59:03;;;;;;;10.20;6.00;;;4.00;99.90;;;;;;5049464;28;20116;-53
2022/04/09 07:01:30;;;;;;;9.68;5.82;;;3.90;99.90;;;;;;5049516;28;20715;-52
2022/04/09 07:03:56;;;;;;;12.43;8.33;;;4.00;99.90;;;;;;5050152;28;20029;-52
2022/04/09 07:06:22;;;;;;;11.85;7.47;;;4.00;99.90;;;;;;5048003;28;20123;-52
2022/04/09 07:08:48;;;;;;;15.18;7.60;;;4.00;99.90;;;;;;5049594;28;20029;-53
2022/04/09 07:11:14;;;;;;;10.48;6.93;;;4.00;99.90;;;;;;5049450;28;20503;-51
2022/04/09 07:13:40;;;;;;;11.55;7.85;;;4.10;99.90;;;;;;5049455;28;20344;-52
2022/04/09 07:16:05;;;;;;;14.50;9.90;;;4.00;99.90;;;;;;5049150;28;20036;-53
2022/04/09 07:18:32;;;;;;;19.65;13.18;;;4.10;99.90;;;;;;5049201;28;20021;-52
2022/04/09 07:20:58;;;;;;;17.58;10.18;;;4.10;99.90;;;;;;5049346;28;20025;-53
2022/04/09 07:23:23;;;;;;;11.35;8.10;;;4.10;99.90;;;;;;5064111;28;20453;-51
2022/04/09 07:25:49;;;;;;;10.55;6.53;;;4.10;99.90;;;;;;5065861;28;20041;-53
2022/04/09 07:28:15;;;;;;;11.27;7.50;;;4.10;99.90;;;;;;5049162;28;20031;-53
2022/04/09 07:30:42;;;;;;;8.48;6.05;;;4.10;99.90;;;;;;5049100;28;20036;-52
2022/04/09 07:33:07;;;;;;;9.63;6.50;;;4.00;99.90;;;;;;5048775;28;20384;-52
2022/04/09 07:35:35;;;;;;;8.07;5.97;;;4.10;99.90;;;;;;5048801;28;20032;-53
2022/04/09 07:38:01;;;;;;;;;;;4.10;99.90;;;;;;5048200;28;20149;-52
2022/04/09 07:40:28;;;;;;;9.18;6.20;;;4.10;99.90;;;;;;5047785;28;20310;-52
2022/04/09 07:42:54;;;;;;;10.32;6.57;;;4.10;99.90;;;;;;5048939;28;20041;-50
2022/04/09 07:45:21;;;;;;;10.70;7.00;;;4.10;99.90;;;;;;5048870;28;20048;-51
2022/04/09 07:47:52;;;;;;;15.80;10.63;;;4.10;99.90;;;;;;5048656;28;20663;-52
2022/04/09 07:50:18;;;;;;;15.82;10.05;;;4.10;99.90;;;;;;5049085;28;20029;-53
2022/04/09 07:52:44;;;;;;;14.55;9.95;;;4.20;99.90;;;;;;5048499;28;20446;-52
2022/04/09 07:55:16;;;;;;;23.33;13.88;;;4.20;99.90;;;;;;5048953;28;20025;-52
2022/04/09 07:57:47;;;;;;;20.20;13.88;;;4.20;99.90;;;;;;5047209;28;20052;-53
2022/04/09 08:00:15;;;;;;;19.88;12.32;;;4.30;99.90;;;;;;5048578;28;20025;-53
2022/04/09 08:02:41;;;;;;;18.10;11.88;;;4.30;99.90;;;;;;5048895;28;20041;-53
2022/04/09 08:05:10;;;;;;;17.92;12.93;;;4.40;99.90;;;;;;5047250;28;20025;-51
2022/04/09 08:07:37;;;;;;;17.23;11.77;;;4.40;99.90;;;;;;5047321;28;20084;-52
2022/04/09 08:10:03;;;;;;;18.00;11.65;;;4.40;99.90;;;;;;5047630;28;20025;-53
2022/04/09 08:12:29;;;;;;;21.23;12.93;;;4.40;99.90;;;;;;5048643;28;20032;-50
2022/04/09 08:14:54;;;;;;;14.48;10.48;;;4.40;99.90;;;;;;5047889;28;20500;-49
2022/04/09 08:17:20;;;;;;;18.08;11.85;;;4.40;99.90;;;;;;5048631;28;20029;-51
2022/04/09 08:19:47;;;;;;;21.73;11.32;;;4.40;99.90;;;;;;5048227;28;20040;-52
2022/04/09 08:22:13;;;;;;;16.58;10.52;;;4.40;99.90;;;;;;5053911;28;20072;-52
2022/04/09 08:24:41;;;;;;;19.08;10.55;;;4.40;99.90;;;;;;5068366;28;20024;-51
2022/04/09 08:27:08;;;;;;;20.55;10.57;;;4.40;99.90;;;;;;5068258;28;20029;-52
2022/04/09 08:29:35;;;;;;;19.40;11.55;;;4.40;99.90;;;;;;5068477;28;20036;-52
2022/04/09 08:32:01;;;;;;;18.77;11.75;;;4.50;99.90;;;;;;5068366;28;20029;-52
2022/04/09 08:34:29;;;;;;;16.25;11.43;;;4.60;99.90;;;;;;5068457;28;20028;-52
2022/04/09 08:36:55;;;;;;;23.35;12.07;;;4.60;99.90;;;;;;5068161;28;20035;-51
2022/04/09 08:39:21;;;;;;;31.58;17.73;;;4.70;99.90;;;;;;5068380;28;20017;-52
2022/04/09 08:41:47;;;;;;;27.15;16.90;;;4.70;99.90;;;;;;5068140;28;20032;-52
2022/04/09 08:44:13;;;;;;;23.50;16.30;;;4.80;99.90;;;;;;5068126;28;20372;-52
2022/04/09 08:46:40;;;;;;;22.05;14.60;;;4.80;99.90;;;;;;5068405;28;20155;-52
2022/04/09 08:49:07;;;;;;;27.20;17.30;;;4.90;99.90;;;;;;5068100;28;20029;-53
2022/04/09 08:51:33;;;;;;;27.25;18.33;;;4.80;99.90;;;;;;5068439;28;20090;-52
2022/04/09 08:54:02;;;;;;;27.77;17.52;;;4.80;99.90;;;;;;5068100;28;20082;-53
2022/04/09 08:56:29;;;;;;;39.13;23.60;;;4.90;99.90;;;;;;5068178;28;20376;-50
2022/04/09 08:58:58;;;;;;;38.17;23.15;;;4.90;99.90;;;;;;5067924;28;20045;-51
2022/04/09 09:01:24;;;;;;;29.75;18.60;;;4.90;99.90;;;;;;5066726;28;20041;-53
2022/04/09 09:03:51;;;;;;;36.95;21.13;;;4.80;99.90;;;;;;5068123;28;20486;-51
2022/04/09 09:06:23;;;;;;;30.38;18.08;;;4.80;99.90;;;;;;5068069;28;20484;-51
2022/04/09 09:08:49;;;;;;;30.50;18.50;;;4.80;99.90;;;;;;5068018;28;20036;-51
2022/04/09 09:11:16;;;;;;;45.70;24.65;;;4.90;99.90;;;;;;5068038;28;20352;-51
2022/04/09 09:13:53;;;;;;;42.55;23.35;;;4.90;99.90;;;;;;5068229;28;20104;-51
2022/04/09 09:16:28;;;;;;;38.38;21.25;;;5.00;99.90;;;;;;5071872;28;20379;-52
2022/04/09 09:18:56;;;;;;;31.58;20.15;;;5.00;99.90;;;;;;5071176;28;20032;-51
2022/04/09 09:21:23;;;;;;;26.80;17.42;;;5.00;99.90;;;;;;5071404;28;20029;-51
2022/04/09 09:24:12;;;;;;;26.23;17.42;;;5.00;99.90;;;;;;5071490;28;20476;-52
2022/04/09 09:26:38;;;;;;;25.50;16.50;;;4.90;99.90;;;;;;5060036;28;20036;-52
2022/04/09 09:29:05;;;;;;;25.55;16.10;;;4.80;99.90;;;;;;5071219;28;20021;-52
2022/04/09 09:31:45;;;;;;;24.13;16.33;;;4.80;99.90;;;;;;5071608;28;20043;-51
2022/04/09 09:34:12;;;;;;;26.75;19.33;;;4.60;99.90;;;;;;5071667;28;20029;-51
2022/04/09 09:36:40;;;;;;;29.77;19.48;;;4.70;99.90;;;;;;5071449;28;20111;-51
2022/04/09 09:39:07;;;;;;;29.60;20.27;;;4.70;99.90;;;;;;5069358;28;20139;-52
2022/04/09 09:41:33;;;;;;;29.50;20.40;;;4.70;99.90;;;;;;5071277;28;20024;-51
2022/04/09 09:44:06;;;;;;;34.60;22.07;;;4.70;99.90;;;;;;5071196;28;20533;-52
2022/04/09 09:46:32;;;;;;;39.50;21.60;;;4.70;99.90;;;;;;5070941;28;20044;-52
2022/04/09 09:48:58;;;;;;;34.30;22.17;;;4.80;99.90;;;;;;5071284;28;20108;-51
2022/04/09 09:51:24;;;;;;;25.73;18.45;;;4.80;99.90;;;;;;5070859;28;20619;-52
2022/04/09 09:54:12;;;;;;;34.30;21.20;;;4.70;99.90;;;;;;5071069;28;20110;-53
2022/04/09 09:56:42;;;;;;;31.15;19.52;;;4.80;99.90;;;;;;5071026;28;20036;-53
2022/04/09 09:59:10;;;;;;;35.22;24.48;;;5.00;99.90;;;;;;5070709;28;20396;-52
2022/04/09 10:01:38;;;;;;;33.35;22.85;;;5.10;99.90;;;;;;5071083;28;20025;-53
2022/04/09 10:04:05;;;;;;;34.60;22.48;;;5.10;99.90;;;;;;5066746;28;20518;-51
2022/04/09 10:06:31;;;;;;;;;;;5.20;99.90;;;;;;5051104;28;20037;-51
2022/04/09 10:09:05;;;;;;;40.78;24.33;;;5.20;99.90;;;;;;5050708;28;19997;-54
2022/04/09 10:11:42;;;;;;;40.03;23.58;;;5.30;99.90;;;;;;5050812;28;20107;-51
2022/04/09 10:14:10;;;;;;;47.60;26.95;;;5.30;99.90;;;;;;5051060;28;20029;-52
2022/04/09 10:16:36;;;;;;;44.60;25.42;;;5.40;99.90;;;;;;5050654;28;20033;-52
2022/04/09 10:19:04;;;;;;;31.45;20.13;;;5.60;99.90;;;;;;5050178;28;20056;-52
2022/04/09 10:21:33;;;;;;;28.63;18.80;;;5.70;99.90;;;;;;5050589;28;20051;-53
2022/04/09 10:24:00;;;;;;;34.55;21.60;;;5.80;99.90;;;;;;5069942;28;20024;-51
2022/04/09 10:26:28;;;;;;;26.05;17.50;;;5.90;99.90;;;;;;5069911;28;20037;-53
2022/04/09 10:29:04;;;;;;;;;;;5.80;99.90;;;;;;5070830;28;20036;-51
2022/04/09 10:31:30;;;;;;;26.73;17.00;;;5.80;99.90;;;;;;5070310;28;19970;-51
2022/04/09 10:33:57;;;;;;;24.30;16.30;;;5.90;99.90;;;;;;5070318;28;20139;-50
2022/04/09 10:36:44;;;;;;;18.95;12.88;;;6.00;99.90;;;;;;5070122;28;20055;-51
2022/04/09 10:39:29;;;;;;;24.90;12.90;;;6.00;99.90;;;;;;5069949;28;20054;-52
2022/04/09 10:41:59;;;;;;;26.20;15.38;;;6.10;99.90;;;;;;5070061;28;20065;-52
2022/04/09 10:44:43;;;;;;;24.73;14.95;;;6.20;99.90;;;;;;5069756;28;20036;-52
2022/04/09 10:47:16;;;;;;;19.15;12.15;;;6.30;99.90;;;;;;5068557;28;20127;-51
2022/04/09 10:50:05;;;;;;;18.08;12.50;;;6.40;99.90;;;;;;5069827;28;20020;-51
2022/04/09 10:52:32;;;;;;;22.73;12.65;;;6.40;99.90;;;;;;5069792;28;20109;-53
2022/04/09 10:55:10;;;;;;;17.98;11.85;;;6.40;99.90;;;;;;5069752;28;20468;-50
2022/04/09 10:57:44;;;;;;;21.20;10.55;;;6.40;99.90;;;;;;5069652;28;20051;-51
2022/04/09 11:00:26;;;;;;;19.02;10.40;;;6.40;99.90;;;;;;5069781;28;20059;-51
2022/04/09 11:03:10;;;;;;;20.13;11.52;;;6.50;99.90;;;;;;5069566;28;20020;-50
2022/04/09 11:05:39;;;;;;;20.17;11.85;;;6.50;99.90;;;;;;5052715;28;20044;-52
2022/04/09 11:08:07;;;;;;;21.05;12.18;;;6.60;99.90;;;;;;5049727;28;20052;-51
2022/04/09 11:10:33;;;;;;;15.70;9.93;;;6.70;99.90;;;;;;5049484;28;20487;-51
2022/04/09 11:12:58;;;;;;;21.58;12.43;;;6.70;99.90;;;;;;5049462;28;20087;-52
2022/04/09 11:15:26;;;;;;;21.10;12.13;;;6.70;99.90;;;;;;5049274;28;20106;-51
2022/04/09 11:17:51;;;;;;;;;;;6.70;99.90;;;;;;5049661;28;20029;-52
2022/04/09 11:20:19;;;;;;;19.40;10.32;;;6.70;99.90;;;;;;5049150;28;19908;-51
2022/04/09 11:22:47;;;;;;;;;;;6.70;99.90;;;;;;5059084;28;20024;-50
2022/04/09 11:25:20;;;;;;;16.13;9.93;;;6.70;99.90;;;;;;5068810;28;20530;-52
2022/04/09 11:27:46;;;;;;;15.30;7.97;;;6.60;99.90;;;;;;5069275;28;20037;-52
2022/04/09 11:30:12;;;;;;;14.50;8.40;;;6.60;99.90;;;;;;5069117;28;20025;-50
2022/04/09 11:32:38;;;;;;;15.98;8.80;;;6.70;99.90;;;;;;5069156;28;20111;-51
2022/04/09 11:35:10;;;;;;;13.02;7.88;;;6.70;99.90;;;;;;5067505;28;20177;-51
2022/04/09 11:37:40;;;;;;;16.30;7.72;;;6.80;99.90;;;;;;5068088;28;20032;-51
2022/04/09 11:40:07;;;;;;;13.73;6.95;;;6.90;99.90;;;;;;5067879;28;20024;-52
2022/04/09 11:42:47;;;;;;;;;;;6.90;99.90;;;;;;5067848;28;20036;-51
2022/04/09 11:45:19;;;;;;;15.48;7.57;;;7.00;99.90;;;;;;5068572;28;19943;-52
2022/04/09 11:47:45;;;;;;;14.07;7.18;;;7.00;99.90;;;;;;5067578;28;20078;-52
2022/04/09 11:50:13;;;;;;;13.75;6.38;;;7.10;99.90;;;;;;5068854;28;20033;-52
2022/04/09 11:52:39;;;;;;;10.57;5.30;;;7.10;99.90;;;;;;5069042;28;20445;-52
2022/04/09 11:55:09;;;;;;;13.88;5.13;;;7.10;99.90;;;;;;5067078;28;20028;-51
2022/04/09 11:57:39;;;;;;;12.07;4.97;;;7.00;99.90;;;;;;5068645;28;20039;-52
2022/04/09 12:00:06;;;;;;;12.93;5.28;;;6.80;99.90;;;;;;5068674;28;20621;-51
2022/04/09 12:02:31;;;;;;;;;;;6.70;99.90;;;;;;5069166;28;20028;-52
2022/04/09 12:04:57;;;;;;;13.82;7.00;;;6.50;99.90;;;;;;5068155;28;19913;-52
2022/04/09 12:07:26;;;;;;;15.10;5.68;;;6.40;99.90;;;;;;5068416;28;20032;-51
2022/04/09 12:09:53;;;;;;;20.85;6.53;;;6.40;99.90;;;;;;5068823;28;20108;-51
2022/04/09 12:12:20;;;;;;;11.15;6.10;;;6.40;99.90;;;;;;5068469;28;20436;-50
2022/04/09 12:14:57;;;;;;;17.35;6.15;;;6.40;99.90;;;;;;5068620;28;20036;-51
2022/04/09 12:17:30;;;;;;;12.45;5.68;;;6.50;99.90;;;;;;5068333;28;20112;-51
2022/04/09 12:19:56;;;;;;;12.20;5.43;;;6.70;99.90;;;;;;5068874;28;20033;-51
2022/04/09 12:22:23;;;;;;;9.70;5.03;;;6.80;99.90;;;;;;5068403;28;20027;-52
2022/04/09 12:24:59;;;;;;;10.38;4.90;;;6.80;99.90;;;;;;5068271;28;20567;-49
2022/04/09 12:27:46;;;;;;;10.88;5.85;;;6.90;99.90;;;;;;5068294;28;20119;-52
2022/04/09 12:30:13;;;;;;;14.30;5.88;;;6.90;99.90;;;;;;5068349;28;20056;-52
2022/04/09 12:32:41;;;;;;;13.18;5.85;;;7.00;99.90;;;;;;5068645;28;20024;-53
2022/04/09 12:35:08;;;;;;;12.05;4.85;;;7.00;99.90;;;;;;5068207;28;20116;-51
2022/04/09 12:37:48;;;;;;;11.67;5.23;;;7.00;99.90;;;;;;5068309;28;20020;-52
2022/04/09 12:40:20;;;;;;;10.90;4.25;;;7.00;99.90;;;;;;5068490;28;20032;-52
2022/04/09 12:42:46;;;;;;;14.15;4.28;;;7.00;99.90;;;;;;5068041;28;20376;-52
2022/04/09 12:45:15;;;;;;;7.80;4.22;;;7.10;99.90;;;;;;5068305;28;20037;-52
2022/04/09 12:47:42;;;;;;;13.68;4.78;;;7.20;99.90;;;;;;5068534;28;20029;-51